Latest Weather Observations for kunanyi / Mount Wellington

IDT60801

Issued at 1:31 pm EDT Monday 30 November 2020 (issued every 10 minutes, with the page automatically refreshed every 10 minutes)

About weather observations | Map of weather stations | Latest weather observations for TAS | Other Formats
Station Details ID: 094087 Name: KUNANYI (MOUNT WELLINGTON PINNACLE) Lat: -42.90 Lon: 147.24 Height: 1260.47 m
Data from the previous 72 hours. | See also: Recent months at kunanyi / Mount Wellington
Date/Time
EDT
Temp
°C
App
Temp
°C
Dew
Point
°C
Rel
Hum
%
Delta-T
°C
Wind Press
QNH
hPa
Press
MSL
hPa
Rain since
9am
mm
Dir  Spd
km/h
Gust
km/h
Spd
kts
Gust
kts
30/12:00pm 8.5 3.1 2.5 66 2.7 N 20 26 11 14 - - 0.0
30/11:30am 9.2 4.6 3.8 69 2.5 N 17 26 9 14 - - 0.0
30/11:00am 8.4 4.9 3.7 72 2.2 NNW 11 17 6 9 - - 0.0
30/10:30am 7.6 3.6 2.7 71 2.2 NNW 13 20 7 11 - - 0.0
30/10:00am 6.3 3.1 3.1 80 1.4 NW 9 15 5 8 - - 0.0
30/09:30am 7.0 3.0 2.9 75 1.9 NW 13 22 7 12 - - 0.0
30/09:00am 7.4 0.8 -3.2 47 4.2 NW 22 35 12 19 - - 0.0
30/08:30am 6.2 0.2 -1.9 56 3.2 NW 20 32 11 17 - - 0.0
30/08:00am 6.5 -0.7 -4.9 44 4.3 NW 24 33 13 18 - - 0.0
30/07:30am 5.0 -1.0 -1.4 63 2.6 NNW 20 28 11 15 - - 0.0
30/07:00am 4.5 -0.4 -3.7 55 3.1 WNW 13 17 7 9 - - 0.0
30/06:30am 2.9 -2.0 -3.6 62 2.4 WNW 13 15 7 8 - - 0.0
30/06:00am 2.6 -1.7 -5.0 57 2.8 WNW 9 13 5 7 - - 0.0
30/05:30am 3.5 -0.6 -6.5 48 3.5 WNW 7 11 4 6 - - 0.0
30/05:00am 4.0 0.4 -7.4 43 3.9 WNW 4 11 2 6 - - 0.0
30/04:30am 2.3 -3.4 -3.6 65 2.2 WSW 17 22 9 12 - - 0.0
30/04:00am 2.0 -4.3 -3.9 65 2.3 WSW 20 22 11 12 - - 0.0
30/03:30am 2.4 -3.9 -4.3 61 2.6 WSW 20 24 11 13 - - 0.0
30/03:00am 1.8 -3.1 -3.1 70 1.9 WNW 13 20 7 11 - - 0.0
30/02:30am 1.9 -4.2 -2.4 73 1.6 W 20 24 11 13 - - 0.0
30/02:00am 1.7 -4.0 0.7 93 0.4 WSW 20 24 11 13 - - 0.0
30/01:30am 2.5 -5.7 -1.1 77 1.4 WSW 32 39 17 21 - - 0.0
30/01:00am 2.0 -5.2 0.8 92 0.5 SW 28 33 15 18 - - 0.0
30/12:30am 2.0 -6.1 1.3 95 0.3 SW 33 50 18 27 - - 0.0
30/12:00am 1.9 -6.6 0.6 91 0.5 SW 35 43 19 23 - - 0.0
 
Date/Time
EDT
Temp
°C
App
Temp
°C
Dew
Point
°C
Rel
Hum
%
Delta-T
°C
Wind Press
QNH
hPa
Press
MSL
hPa
Rain since
9am
mm
Dir  Spd
km/h
Gust
km/h
Spd
kts
Gust
kts
29/11:30pm 2.0 -6.9 0.5 90 0.6 WSW 37 50 20 27 - - 0.0
29/11:00pm 2.0 -8.0 0.7 91 0.5 SW 43 54 23 29 - - 0.0
29/10:30pm 2.1 -7.8 1.4 95 0.3 SW 43 56 23 30 - - 0.0
29/10:00pm 2.6 -8.5 2.3 98 0.1 SW 50 59 27 32 - - 0.0
29/09:30pm 3.2 -6.2 2.6 96 0.3 WSW 41 50 22 27 - - 0.0
29/09:00pm 3.5 -4.8 2.3 92 0.5 SW 35 48 19 26 - - 0.0
29/08:30pm 3.7 -3.4 1.3 84 1.0 WSW 28 41 15 22 - - 0.0
29/08:16pm 4.0 -3.0 1.7 85 1.0 SW 28 46 15 25 - - 0.0
29/08:00pm 4.5 -2.9 1.9 83 1.1 SSW 30 43 16 23 - - 0.0
29/07:30pm 5.2 -2.6 2.0 80 1.4 WSW 32 43 17 23 - - 0.0
29/07:00pm 4.9 -4.5 2.1 82 1.2 WSW 41 50 22 27 - - 0.0
29/06:30pm 5.1 -5.8 1.6 78 1.5 WSW 48 56 26 30 - - 0.0
29/06:00pm 6.2 -2.6 1.5 72 2.0 WSW 37 52 20 28 - - 0.0
29/05:32pm 7.2 -1.8 2.3 71 2.2 WSW 39 59 21 32 - - 0.0
29/05:30pm 7.1 -1.5 2.8 74 1.9 WSW 37 52 20 28 - - 0.0
29/05:00pm 7.4 -0.5 2.5 71 2.2 SW 33 57 18 31 - - 0.0
29/04:42pm 7.3 -0.5 2.8 73 2.0 WSW 33 52 18 28 - - 0.0
29/04:30pm 7.8 -0.2 3.7 75 1.9 WSW 35 48 19 26 - - 0.0
29/04:01pm 8.1 -0.2 4.1 76 1.9 WSW 37 57 20 31 - - 0.0
29/04:00pm 7.7 -1.0 3.9 77 1.8 WSW 39 57 21 31 - - 0.0
29/03:57pm 7.3 -1.2 3.0 74 2.0 WSW 37 57 20 31 - - 0.0
29/03:30pm 5.8 -3.5 3.1 83 1.2 WSW 41 57 22 31 - - 0.0
29/03:00pm 5.2 -5.0 3.4 88 0.8 SW 46 65 25 35 - - 0.0
29/02:56pm 5.3 -4.8 3.6 89 0.8 SW 46 65 25 35 - - 0.0
29/02:30pm 5.6 -3.3 3.3 85 1.0 SW 39 54 21 29 - - 0.0
29/02:19pm 5.9 -3.7 3.4 84 1.1 SW 43 61 23 33 - - 0.0
29/02:00pm 7.7 -2.3 4.3 79 1.6 SW 46 61 25 33 - - 0.0
29/01:30pm 6.1 -3.1 3.4 83 1.2 WSW 41 54 22 29 - - 0.0
29/01:09pm 7.1 -1.0 3.5 78 1.7 WSW 35 56 19 30 - - 0.0
29/01:00pm 5.6 -4.0 3.6 87 0.9 WSW 43 59 23 32 - - 0.0
29/12:32pm 7.2 -1.9 4.0 80 1.5 WSW 41 70 22 38 - - 0.0
29/12:30pm 6.7 -2.1 3.5 80 1.5 WSW 39 56 21 30 - - 0.0
29/12:05pm 6.5 -1.6 3.3 80 1.5 WSW 35 54 19 29 - - 0.0
29/12:00pm 6.1 -3.2 2.9 80 1.4 WSW 41 54 22 29 - - 0.0
29/11:30am 5.3 -2.0 4.4 94 0.4 WSW 32 43 17 23 - - 0.0
29/11:00am 4.5 -2.4 4.5 100 0.0 WSW 30 48 16 26 - - 0.0
29/10:42am 4.6 -3.3 4.6 100 0.0 SW 35 54 19 29 - - 0.0
29/10:30am 4.6 -2.9 4.6 100 0.0 SW 33 50 18 27 - - 0.0
29/10:00am 4.3 -3.6 4.3 100 0.0 SW 35 46 19 25 - - 0.0
29/09:30am 4.3 -2.7 4.3 100 0.0 SW 30 39 16 21 - - 0.0
29/09:00am 4.6 -2.3 4.6 100 0.0 SW 30 37 16 20 - - 2.6
29/08:30am 4.2 -4.9 4.2 100 0.0 SW 41 44 22 24 - - 2.6
29/08:00am 4.3 -2.7 4.3 100 0.0 SW 30 35 16 19 - - 2.6
29/07:30am 4.4 -1.0 4.4 100 0.0 SSW 22 33 12 18 - - 2.6
29/07:00am 4.8 -1.3 4.8 100 0.0 SW 26 32 14 17 - - 1.6
29/06:30am 5.2 0.5 5.2 100 0.0 SW 19 24 10 13 - - 0.8
29/06:00am 5.3 -0.3 5.3 100 0.0 SW 24 26 13 14 - - 0.4
29/05:30am 5.3 0.6 5.3 100 0.0 SW 19 22 10 12 - - 0.2
29/05:00am 5.8 2.8 5.8 100 0.0 SW 11 15 6 8 - - 0.2
29/04:30am 5.9 3.6 5.9 100 0.0 SSW 7 9 4 5 - - 0.2
29/04:00am 6.1 4.4 6.1 100 0.0 ENE 4 6 2 3 - - 0.2
29/03:30am 5.7 3.6 5.7 100 0.0 NNW 6 7 3 4 - - 0.2
29/03:00am 6.4 4.4 6.4 100 0.0 N 6 11 3 6 - - 0.2
29/02:30am 6.2 4.6 6.2 100 0.0 NE 4 6 2 3 - - 0.2
29/02:00am 6.7 4.8 6.7 100 0.0 NNE 6 7 3 4 - - 0.0
29/01:30am 6.7 4.8 6.7 100 0.0 NNE 6 9 3 5 - - 0.0
29/01:00am 6.8 4.0 6.8 100 0.0 N 11 15 6 8 - - 0.0
29/12:30am 6.6 4.7 6.6 100 0.0 NNE 6 11 3 6 - - 0.0
29/12:00am 6.5 4.9 6.5 100 0.0 NE 4 9 2 5 - - 0.0
 
Date/Time
EDT
Temp
°C
App
Temp
°C
Dew
Point
°C
Rel
Hum
%
Delta-T
°C
Wind Press
QNH
hPa
Press
MSL
hPa
Rain since
9am
mm
Dir  Spd
km/h
Gust
km/h
Spd
kts
Gust
kts
28/11:30pm 6.4 4.7 6.1 98 0.1 NE 4 6 2 3 - - 0.0
28/11:00pm 6.4 4.7 6.0 97 0.2 NE 4 6 2 3 - - 0.0
28/10:30pm 6.4 4.7 6.0 97 0.2 NE 4 6 2 3 - - 0.0
28/10:00pm 6.5 5.2 6.2 98 0.1 NE 2 6 1 3 - - 0.0
28/09:30pm 6.6 5.0 6.5 99 0.0 NE 4 7 2 4 - - 0.0
28/09:00pm 6.6 5.4 6.5 99 0.0 SSW 2 7 1 4 - - 0.0
28/08:30pm 7.1 5.6 6.7 97 0.2 SW 4 6 2 3 - - 0.0
28/08:00pm 7.1 5.3 7.0 99 0.0 SE 6 9 3 5 - - 0.0
28/07:30pm 7.4 6.3 6.8 96 0.3 ESE 2 6 1 3 - - 0.0
28/07:00pm 7.7 5.8 6.6 93 0.5 SE 6 9 3 5 - - 0.0
28/06:30pm 9.9 6.3 2.7 61 3.3 WSW 11 15 6 8 - - 0.0
28/06:00pm 10.0 6.7 2.6 60 3.4 WNW 9 13 5 7 - - 0.0
28/05:30pm 10.2 7.1 3.5 63 3.2 NW 9 17 5 9 - - 0.0
28/05:00pm 11.0 6.0 1.5 52 4.3 WNW 17 24 9 13 - - 0.0
28/04:30pm 13.0 7.7 2.0 47 5.1 WSW 19 24 10 13 - - 0.0
28/04:00pm 13.1 8.5 1.5 45 5.4 WNW 15 24 8 13 - - 0.0
28/03:30pm 12.6 9.6 2.2 49 4.9 NNW 7 19 4 10 - - 0.0
28/03:00pm 13.7 10.6 3.5 50 4.9 W 9 22 5 12 - - 0.0
28/02:30pm 12.4 8.2 1.7 48 4.9 WSW 13 28 7 15 - - 0.0
28/02:00pm 11.7 8.4 2.2 52 4.4 SW 9 22 5 12 - - 0.0
28/01:30pm 10.8 4.3 2.6 57 3.8 WSW 26 41 14 22 - - 0.0
28/01:00pm 11.3 6.5 2.6 55 4.1 W 17 28 9 15 - - 0.0
28/12:30pm 10.1 4.7 2.2 58 3.6 WSW 20 32 11 17 - - 0.0
28/12:00pm 10.1 4.7 2.5 59 3.5 WSW 20 41 11 22 - - 0.0
28/11:30am 10.2 6.7 3.7 64 3.1 WSW 11 30 6 16 - - 0.0
28/11:00am 9.3 3.9 2.6 63 3.1 SW 20 28 11 15 - - 0.0
28/10:30am 9.0 4.9 2.3 63 3.0 SW 13 22 7 12 - - 0.0
28/10:00am 8.8 4.2 1.7 61 3.2 WSW 15 30 8 16 - - 0.0
28/09:30am 7.8 4.4 2.1 67 2.6 WSW 9 20 5 11 - - 0.0
28/09:00am 7.9 1.7 -0.6 55 3.6 WSW 22 32 12 17 - - 0.0
28/08:30am 7.0 -0.2 -1.7 54 3.5 SW 26 37 14 20 - - 0.0
28/08:00am 6.6 -1.4 -2.0 54 3.4 W 30 39 16 21 - - 0.0
28/07:30am 5.9 -1.2 -1.0 61 2.8 WSW 26 33 14 18 - - 0.0
28/07:00am 5.8 -1.3 -1.3 60 2.9 WSW 26 33 14 18 - - 0.0
28/06:30am 5.2 -1.9 -1.3 63 2.6 WSW 26 30 14 16 - - 0.0
28/06:00am 4.0 -3.2 0.7 79 1.4 SW 28 33 15 18 - - 0.0
28/05:30am 4.1 -4.4 1.1 81 1.3 SW 35 43 19 23 - - 0.0
28/05:00am 3.9 -4.9 1.4 84 1.1 SW 37 44 20 24 - - 0.0
28/04:30am 4.0 -3.3 2.2 88 0.8 WSW 30 41 16 22 - - 0.0
28/04:00am 4.0 -3.7 2.5 90 0.7 WSW 32 39 17 21 - - 0.0
28/03:30am 4.4 -5.0 2.6 88 0.8 WSW 41 52 22 28 - - 0.0
28/03:00am 4.5 -4.4 2.8 89 0.8 WSW 39 52 21 28 - - 0.0
28/02:30am 4.5 -4.8 3.0 90 0.7 WSW 41 54 22 29 - - 0.0
28/02:00am 4.6 -3.6 2.9 89 0.8 WSW 35 48 19 26 - - 0.0
28/01:30am 4.9 -4.5 2.4 84 1.1 WSW 41 57 22 31 - - 0.0
28/01:00am 5.3 -4.1 2.3 81 1.3 WSW 41 52 22 28 - - 0.0
28/12:48am 5.4 -2.8 2.6 82 1.2 WSW 35 54 19 29 - - 0.0
28/12:30am 5.6 -2.0 3.1 84 1.1 W 32 43 17 23 - - 0.0
28/12:14am 6.0 -2.1 3.2 82 1.3 WSW 35 54 19 29 - - 0.0
28/12:00am 5.9 -3.6 3.7 86 1.0 W 43 54 23 29 - - 0.0
 
Date/Time
EDT
Temp
°C
App
Temp
°C
Dew
Point
°C
Rel
Hum
%
Delta-T
°C
Wind Press
QNH
hPa
Press
MSL
hPa
Rain since
9am
mm
Dir  Spd
km/h
Gust
km/h
Spd
kts
Gust
kts
27/11:30pm 6.6 -4.8 3.0 78 1.6 W 52 72 28 39 - - 0.0
27/11:21pm 6.8 -4.5 3.2 78 1.6 W 52 69 28 37 - - 0.0
27/11:03pm 7.2 -0.7 4.2 81 1.4 W 35 70 19 38 - - 0.0
27/11:00pm 7.2 -0.3 4.2 81 1.4 W 33 50 18 27 - - 0.0
27/10:30pm 7.7 0.6 5.5 86 1.1 W 32 43 17 23 - - 0.0
27/10:00pm 8.3 1.6 5.6 83 1.3 W 30 44 16 24 - - 0.0
27/09:30pm 8.7 1.3 5.1 78 1.7 W 33 44 18 24 - - 0.0
27/09:00pm 9.0 1.3 5.2 77 1.8 WNW 35 44 19 24 - - 0.0
27/08:30pm 8.7 3.2 7.5 92 0.6 W 26 37 14 20 - - 0.0
27/08:00pm 9.4 4.5 7.0 85 1.2 WSW 22 26 12 14 - - 0.0
27/07:30pm 11.2 5.8 4.4 63 3.3 NW 22 33 12 18 - - 0.0
27/07:00pm 10.6 5.4 5.4 70 2.6 NNW 22 35 12 19 - - 0.0
27/06:30pm 12.3 6.5 4.3 58 3.9 NNW 24 32 13 17 - - 0.0
27/06:00pm 13.0 6.8 4.2 55 4.3 NNW 26 41 14 22 - - 0.0
27/05:43pm 13.1 6.4 3.5 52 4.6 NNW 28 50 15 27 - - 0.0
27/05:30pm 13.5 7.5 3.6 51 4.8 NNW 24 46 13 25 - - 0.0
27/05:00pm 13.8 7.2 4.1 52 4.8 NW 28 44 15 24 - - 0.0
27/04:46pm 13.5 6.0 3.6 51 4.8 NNW 32 50 17 27 - - 0.0
27/04:30pm 13.8 6.3 3.3 49 5.1 NNW 32 46 17 25 - - 0.0
27/04:00pm 14.4 6.3 3.2 47 5.4 NNW 35 54 19 29 - - 0.0
27/03:30pm 14.6 6.6 3.7 48 5.3 N 35 56 19 30 - - 0.0
27/03:00pm 13.9 4.1 2.5 46 5.4 N 43 63 23 34 - - 0.0
27/02:40pm 15.1 6.1 2.6 43 6.0 NNW 39 57 21 31 - - 0.0
27/02:30pm 14.8 5.5 3.0 45 5.7 NNW 41 59 22 32 - - 0.0
27/02:04pm 14.5 5.0 3.9 49 5.2 N 43 61 23 33 - - 0.0
27/02:00pm 14.2 4.5 3.7 49 5.1 N 44 61 24 33 - - 0.0
27/01:35pm 14.0 4.5 3.8 50 5.0 N 43 63 23 34 - - 0.0

Other formats

Comma delimited format used in spreadsheet applications
http://www.bom.gov.au/fwo/IDT60801/IDT60801.95979.axf

JavaScript Object Notation format (JSON) in row-major order
http://www.bom.gov.au/fwo/IDT60801/IDT60801.95979.json

Data quality

Most of these data are generated automatically and are frequently updated. Quality checks on data are not normally performed. It is possible for incorrect values to appear. Refer to information at About Latest Weather Observations and please check the disclaimer before using these data.